This is the latest recevied weather packets stored in our database for station/object LKKB. If no packets are shown the sender has not sent any weather packets the latest 1 day(s).
| Time | Temp. | Humidity | Pressure | Rain* | Wind** | Luminosity | Snow |
|---|---|---|---|---|---|---|---|
| 1778176081 | 13.89° C | 67% | 1013 hPa | - | - | - | - |
| 1778175181 | 13.89° C | 67% | 1013 hPa | - | - | - | - |
| 1778174281 | 13.89° C | 67% | 1013 hPa | - | - | - | - |
| 1778173381 | 13.89° C | 67% | 1013 hPa | - | - | - | - |
| 1778172481 | 13.89° C | 62% | 1013 hPa | - | - | - | - |
| 1778171581 | 13.89° C | 62% | 1013 hPa | - | - | - | - |
| 1778170682 | 15° C | 58% | 1012 hPa | - | - | - | - |
| 1778169781 | 15° C | 58% | 1012 hPa | - | - | - | - |
| 1778168882 | 15° C | 58% | 1012 hPa | - | - | - | - |
| 1778167981 | 15° C | 58% | 1012 hPa | - | - | - | - |
| 1778167082 | 15.56° C | 55% | 1012 hPa | - | - | - | - |
| 1778166181 | 15.56° C | 55% | 1012 hPa | - | - | - | - |
| 1778165282 | 16.67° C | 51% | 1012 hPa | - | - | - | - |
| 1778164381 | 16.67° C | 51% | 1012 hPa | - | - | - | - |
| 1778163481 | 16.67° C | 55% | 1012 hPa | - | - | - | - |
| 1778162581 | 16.67° C | 55% | 1012 hPa | - | - | - | - |
| 1778161681 | 15.56° C | 55% | 1012 hPa | - | - | - | - |
| 1778160781 | 15.56° C | 55% | 1012 hPa | - | - | - | - |
| 1778159881 | 15.56° C | 55% | 1012 hPa | - | - | - | - |
| 1778158981 | 15.56° C | 55% | 1012 hPa | - | - | - | - |
| 1778158081 | 15.56° C | 55% | 1012 hPa | - | - | - | - |
| 1778157182 | 15.56° C | 55% | 1012 hPa | - | - | - | - |
| 1778156282 | 15° C | 58% | 1012 hPa | - | - | - | - |
| 1778155381 | 15° C | 58% | 1012 hPa | - | - | - | - |
| 1778154482 | 15.56° C | 55% | 1011 hPa | - | - | - | - |
* Rain since midnight (hover to see other rain measurements)
** Current wind speed in m/s (hover to see current wind gust speed)